createdAt,value
2022-10-13T00:01:11.045Z,96595.97
2022-10-13T00:03:42.088Z,96592.69
2022-10-13T00:06:10.192Z,96594.97
2022-10-13T00:08:38.353Z,96596.63
2022-10-13T00:11:14.324Z,96594.00
2022-10-13T00:13:42.004Z,96588.75
2022-10-13T00:16:09.818Z,96586.44
2022-10-13T00:18:36.958Z,96590.84
2022-10-13T00:21:11.171Z,96594.28
2022-10-13T00:23:38.648Z,96596.91
2022-10-13T00:26:07.027Z,96600.50
2022-10-13T00:28:33.997Z,96593.78
2022-10-13T00:31:00.883Z,96601.78
2022-10-13T00:33:27.990Z,96602.78
2022-10-13T00:35:54.896Z,96602.63
2022-10-13T00:38:23.257Z,96602.63
2022-10-13T00:40:53.061Z,96606.88
2022-10-13T00:43:26.238Z,96606.03
2022-10-13T00:45:54.059Z,96596.53
2022-10-13T00:48:28.346Z,96595.91
2022-10-13T00:50:56.507Z,96600.63
2022-10-13T00:53:27.493Z,96611.22
2022-10-13T00:55:55.698Z,96606.97
2022-10-13T00:58:25.517Z,96609.56
2022-10-13T01:00:53.579Z,96612.34
2022-10-13T01:03:21.443Z,96608.94
2022-10-13T01:05:50.418Z,96608.09
2022-10-13T01:08:19.144Z,96604.81
2022-10-13T01:11:22.871Z,96607.88
2022-10-13T01:13:58.571Z,96606.28
2022-10-13T01:16:54.530Z,96594.16
2022-10-13T01:19:44.405Z,96595.94
2022-10-13T01:22:26.587Z,96598.03
2022-10-13T01:25:18.141Z,96581.84
2022-10-13T01:28:22.290Z,96579.91
2022-10-13T01:30:55.285Z,96583.31
2022-10-13T01:33:30.198Z,96580.03
2022-10-13T01:36:03.034Z,96576.63
2022-10-13T01:38:59.238Z,96590.38
2022-10-13T01:41:41.488Z,96584.00
2022-10-13T01:44:23.788Z,96580.94
2022-10-13T01:46:54.012Z,96589.56
2022-10-13T01:49:27.272Z,96583.25
2022-10-13T01:51:56.645Z,96589.13
2022-10-13T01:54:23.471Z,96582.91
2022-10-13T01:56:54.517Z,96586.03
2022-10-13T01:59:22.983Z,96582.63
2022-10-13T02:02:08.349Z,96589.63
2022-10-13T02:04:50.205Z,96582.44
2022-10-13T02:07:27.687Z,96585.72
2022-10-13T02:10:05.891Z,96585.06
2022-10-13T02:12:38.603Z,96588.34
2022-10-13T02:15:09.821Z,96581.84
2022-10-13T02:17:36.661Z,96585.59
2022-10-13T02:20:06.603Z,96575.69
2022-10-13T02:22:41.589Z,96584.16
2022-10-13T02:25:09.093Z,96587.47
2022-10-13T02:27:35.863Z,96581.94
2022-10-13T02:30:02.974Z,96575.56
2022-10-13T02:32:31.114Z,96576.34
2022-10-13T02:34:57.909Z,96575.88
2022-10-13T02:37:27.302Z,96572.47
2022-10-13T02:39:54.167Z,96562.81
2022-10-13T02:42:21.305Z,96559.22
2022-10-13T02:44:48.356Z,96557.28
2022-10-13T02:47:15.156Z,96558.75
2022-10-13T02:49:41.944Z,96557.47
2022-10-13T02:52:08.741Z,96553.53
2022-10-13T02:54:37.752Z,96551.59
2022-10-13T02:57:04.511Z,96548.00
2022-10-13T02:59:31.295Z,96539.84
2022-10-13T03:01:58.050Z,96545.06
2022-10-13T03:04:26.212Z,96544.22
2022-10-13T03:06:53.777Z,96545.22
2022-10-13T03:09:20.572Z,96542.47
2022-10-13T03:11:47.356Z,96533.63
2022-10-13T03:14:14.184Z,96542.13
2022-10-13T03:16:42.171Z,96535.25
2022-10-13T03:19:10.282Z,96536.75
2022-10-13T03:21:38.647Z,96541.00
2022-10-13T03:24:05.944Z,96539.34
2022-10-13T03:26:33.370Z,96535.59
2022-10-13T03:29:00.140Z,96538.22
2022-10-13T03:31:27.690Z,96538.22
2022-10-13T03:34:01.868Z,96533.94
2022-10-13T03:36:30.195Z,96538.22
2022-10-13T03:38:56.986Z,96530.53
2022-10-13T03:41:23.813Z,96532.78
2022-10-13T03:43:50.773Z,96524.44
2022-10-13T03:46:19.129Z,96524.09
2022-10-13T03:48:47.399Z,96523.44
2022-10-13T03:51:18.944Z,96525.06
2022-10-13T03:53:46.718Z,96513.25
2022-10-13T03:56:17.588Z,96515.06
2022-10-13T03:58:55.547Z,96512.59
2022-10-13T04:01:23.996Z,96515.53
2022-10-13T04:03:54.024Z,96522.88
2022-10-13T04:06:21.291Z,96512.22
2022-10-13T04:08:49.540Z,96514.69
2022-10-13T04:11:16.961Z,96513.69
2022-10-13T04:13:44.927Z,96508.47
2022-10-13T04:16:20.422Z,96510.59
2022-10-13T04:18:52.954Z,96507.28
2022-10-13T04:21:20.351Z,96507.47
2022-10-13T04:23:47.292Z,96504.34
2022-10-13T04:26:22.451Z,96510.38
2022-10-13T04:28:51.271Z,96503.00
2022-10-13T04:31:18.200Z,96506.94
2022-10-13T04:33:45.893Z,96499.56
2022-10-13T04:36:14.783Z,96500.66
2022-10-13T04:38:42.862Z,96506.72
2022-10-13T04:41:10.741Z,96504.91
2022-10-13T04:43:37.703Z,96509.34
2022-10-13T04:46:09.828Z,96506.22
2022-10-13T04:48:36.631Z,96494.94
2022-10-13T04:51:12.919Z,96503.63
2022-10-13T04:53:40.774Z,96498.50
2022-10-13T04:56:15.494Z,96495.09
2022-10-13T04:58:44.261Z,96493.44
2022-10-13T05:01:21.394Z,96488.38
2022-10-13T05:03:54.523Z,96487.41
2022-10-13T05:06:24.442Z,96488.22
2022-10-13T05:08:56.203Z,96481.84
2022-10-13T05:11:24.444Z,96492.81
2022-10-13T05:13:51.272Z,96482.34
2022-10-13T05:16:19.836Z,96483.88
2022-10-13T05:18:47.595Z,96469.94
2022-10-13T05:21:20.051Z,96472.72
2022-10-13T05:23:46.868Z,96475.50
2022-10-13T05:26:16.616Z,96470.59
2022-10-13T05:28:44.492Z,96470.59
2022-10-13T05:31:19.696Z,96474.00
2022-10-13T05:33:47.413Z,96473.38
2022-10-13T05:36:30.854Z,96468.28
2022-10-13T05:38:59.773Z,96466.63
2022-10-13T05:41:28.012Z,96467.59
2022-10-13T05:43:59.091Z,96468.75
2022-10-13T05:46:26.470Z,96467.09
2022-10-13T05:48:53.543Z,96480.19
2022-10-13T05:51:27.048Z,96474.81
2022-10-13T05:54:10.586Z,96478.41
2022-10-13T05:56:42.667Z,96479.19
2022-10-13T05:59:12.333Z,96474.81
2022-10-13T06:01:42.391Z,96477.25
2022-10-13T06:04:18.693Z,96483.28
2022-10-13T06:06:46.171Z,96481.34
2022-10-13T06:09:13.158Z,96482.69
2022-10-13T06:11:40.312Z,96479.09
2022-10-13T06:14:07.053Z,96482.34
2022-10-13T06:16:36.486Z,96481.38
2022-10-13T06:19:04.631Z,96482.84
2022-10-13T06:21:31.667Z,96476.53
2022-10-13T06:23:58.491Z,96472.94
2022-10-13T06:26:25.272Z,96474.53
2022-10-13T06:28:56.934Z,96479.78
2022-10-13T06:31:26.048Z,96486.50
2022-10-13T06:33:52.796Z,96475.06
2022-10-13T06:36:19.581Z,96473.44
2022-10-13T06:38:47.075Z,96489.13
2022-10-13T06:41:14.451Z,96495.84
2022-10-13T06:43:41.540Z,96492.56
2022-10-13T06:46:11.941Z,96495.56
2022-10-13T06:48:38.918Z,96503.25
2022-10-13T06:51:09.264Z,96508.94
2022-10-13T06:53:36.319Z,96511.06
2022-10-13T06:56:06.143Z,96516.09
2022-10-13T06:58:34.044Z,96517.56
2022-10-13T07:01:00.892Z,96515.78
2022-10-13T07:03:27.860Z,96519.72
2022-10-13T07:05:54.663Z,96520.88
2022-10-13T07:08:21.677Z,96522.06
2022-10-13T07:10:48.934Z,96529.25
2022-10-13T07:13:15.770Z,96523.09
2022-10-13T07:15:42.619Z,96517.72
2022-10-13T07:18:09.393Z,96515.63
2022-10-13T07:20:36.190Z,96516.47
2022-10-13T07:23:04.049Z,96507.66
2022-10-13T07:25:30.845Z,96502.25
2022-10-13T07:27:59.267Z,96497.69
2022-10-13T07:30:27.070Z,96503.91
2022-10-13T07:32:53.930Z,96490.81
2022-10-13T07:35:24.790Z,96498.03
2022-10-13T07:37:54.997Z,96498.06
2022-10-13T07:40:21.848Z,96484.47
2022-10-13T07:42:48.739Z,96483.47
2022-10-13T07:45:15.674Z,96473.31
2022-10-13T07:47:42.428Z,96484.75
2022-10-13T07:50:10.354Z,96474.44
2022-10-13T07:52:37.205Z,96478.03
2022-10-13T07:55:04.563Z,96467.69
2022-10-13T07:57:31.308Z,96468.66
2022-10-13T07:59:58.158Z,96465.19
2022-10-13T08:02:25.090Z,96464.50
2022-10-13T08:04:51.983Z,96464.66
2022-10-13T08:07:19.092Z,96453.94
2022-10-13T08:09:46.654Z,96449.13
2022-10-13T08:12:13.399Z,96456.81
2022-10-13T08:14:40.235Z,96444.81
2022-10-13T08:17:08.011Z,96440.75
2022-10-13T08:19:34.935Z,96443.38
2022-10-13T08:22:01.734Z,96436.44
2022-10-13T08:24:29.600Z,96440.97
2022-10-13T08:26:56.563Z,96442.88
2022-10-13T08:29:24.362Z,96443.38
2022-10-13T08:31:54.907Z,96440.22
2022-10-13T08:34:23.763Z,96441.38
2022-10-13T08:36:54.368Z,96442.38
2022-10-13T08:39:23.658Z,96435.13
2022-10-13T08:41:50.826Z,96439.53
2022-10-13T08:47:25.242Z,96435.13
2022-10-13T08:49:55.368Z,96438.66
2022-10-13T08:52:30.057Z,96437.53
2022-10-13T08:54:57.273Z,96431.53
2022-10-13T08:57:24.535Z,96434.72
2022-10-13T08:59:52.575Z,96429.66
2022-10-13T09:02:27.274Z,96438.53
2022-10-13T09:04:54.418Z,96436.97
2022-10-13T09:07:28.472Z,96436.72
2022-10-13T09:09:55.758Z,96428.53
2022-10-13T09:12:25.324Z,96434.91
2022-10-13T09:15:05.368Z,96429.81
2022-10-13T09:17:33.916Z,96437.44
2022-10-13T09:20:23.192Z,96440.00
2022-10-13T09:23:20.309Z,96435.97
2022-10-13T09:25:50.076Z,96429.72
2022-10-13T09:28:25.310Z,96435.25
2022-10-13T09:31:09.171Z,96431.00
2022-10-13T09:33:38.810Z,96428.38
2022-10-13T09:36:11.703Z,96434.91
2022-10-13T09:38:40.670Z,96433.25
2022-10-13T09:41:15.899Z,96429.63
2022-10-13T09:43:48.525Z,96429.28
2022-10-13T09:46:49.112Z,96426.91
2022-10-13T09:49:38.917Z,96425.81
2022-10-13T09:52:18.700Z,96429.63
2022-10-13T09:55:00.907Z,96430.50
2022-10-13T09:57:30.754Z,96424.88
2022-10-13T10:00:16.667Z,96421.06
2022-10-13T10:03:12.458Z,96423.78
2022-10-13T10:05:45.068Z,96422.94
2022-10-13T10:08:33.639Z,96417.31
2022-10-13T10:11:17.769Z,96414.94
2022-10-13T10:13:44.599Z,96418.56
2022-10-13T10:16:18.151Z,96422.25
2022-10-13T10:19:08.791Z,96414.53
2022-10-13T10:21:49.681Z,96420.78
2022-10-13T10:24:22.761Z,96414.72
2022-10-13T10:26:59.571Z,96404.81
2022-10-13T10:29:38.267Z,96400.19
2022-10-13T10:32:19.834Z,96386.28
2022-10-13T10:35:14.246Z,96379.63
2022-10-13T10:38:07.190Z,96382.88
2022-10-13T10:40:54.986Z,96374.81
2022-10-13T10:43:43.748Z,96366.38
2022-10-13T10:46:20.407Z,96369.59
2022-10-13T10:48:50.357Z,96378.34
2022-10-13T10:51:18.857Z,96378.59
2022-10-13T10:54:19.408Z,96369.38
2022-10-13T10:56:54.461Z,96371.94
2022-10-13T10:59:29.359Z,96360.69
2022-10-13T11:02:30.392Z,96356.50
2022-10-13T11:05:02.115Z,96353.94
2022-10-13T11:07:32.156Z,96355.56
2022-10-13T11:10:17.916Z,96349.81
2022-10-13T11:12:50.827Z,96354.09
2022-10-13T11:15:23.481Z,96359.13
2022-10-13T11:17:50.570Z,96364.41
2022-10-13T11:20:18.037Z,96362.75
2022-10-13T11:22:59.701Z,96352.94
2022-10-13T11:25:35.813Z,96348.66
2022-10-13T11:28:23.634Z,96352.41
2022-10-13T11:31:13.420Z,96346.59
2022-10-13T11:33:40.099Z,96343.78
2022-10-13T11:36:29.712Z,96341.25
2022-10-13T11:39:28.735Z,96349.94
2022-10-13T11:42:20.125Z,96345.41
2022-10-13T11:44:56.238Z,96343.53
2022-10-13T11:47:56.914Z,96342.47
2022-10-13T11:50:49.043Z,96343.25
2022-10-13T11:53:28.162Z,96342.31
2022-10-13T11:56:01.591Z,96341.44
2022-10-13T11:58:30.467Z,96346.38
2022-10-13T12:01:08.700Z,96341.59
2022-10-13T12:03:42.085Z,96342.97
2022-10-13T12:06:33.372Z,96331.81
2022-10-13T12:09:15.953Z,96338.88
2022-10-13T12:11:44.404Z,96331.16
2022-10-13T12:14:28.795Z,96339.59
2022-10-13T12:16:58.565Z,96334.91
2022-10-13T12:19:28.759Z,96336.53
2022-10-13T12:21:58.829Z,96328.09
2022-10-13T12:24:31.079Z,96324.25
2022-10-13T12:26:58.879Z,96321.72
2022-10-13T12:29:30.236Z,96320.16
2022-10-13T12:32:00.608Z,96321.03
2022-10-13T12:34:30.014Z,96317.06
2022-10-13T12:37:02.643Z,96323.19
2022-10-13T12:39:31.984Z,96315.84
2022-10-13T12:42:01.361Z,96310.75
2022-10-13T12:44:30.837Z,96315.41
2022-10-13T12:47:00.260Z,96310.31
2022-10-13T12:49:29.734Z,96308.75
2022-10-13T12:52:14.907Z,96307.34
2022-10-13T12:54:56.146Z,96300.53
2022-10-13T12:57:38.972Z,96293.88
2022-10-13T13:00:19.931Z,96286.63
2022-10-13T13:03:07.550Z,96278.88
2022-10-13T13:05:51.579Z,96278.94
2022-10-13T13:08:27.191Z,96275.25
2022-10-13T13:10:55.950Z,96271.41
2022-10-13T13:13:24.039Z,96275.09
2022-10-13T13:15:51.286Z,96277.34
2022-10-13T13:18:27.349Z,96272.84
2022-10-13T13:20:54.823Z,96285.41
2022-10-13T13:23:23.424Z,96284.72
2022-10-13T13:26:11.256Z,96283.97
2022-10-13T13:28:38.810Z,96280.66
2022-10-13T13:31:05.705Z,96282.56
2022-10-13T13:33:32.718Z,96290.19
2022-10-13T13:35:59.903Z,96290.09
2022-10-13T13:38:26.747Z,96297.25
2022-10-13T13:40:53.580Z,96289.09
2022-10-13T13:43:20.521Z,96288.66
2022-10-13T13:45:47.956Z,96281.50
2022-10-13T13:48:18.475Z,96284.09
2022-10-13T13:50:45.225Z,96283.22
2022-10-13T13:53:11.960Z,96286.41
2022-10-13T13:55:39.211Z,96283.94
2022-10-13T13:58:06.716Z,96284.34
2022-10-13T14:00:33.763Z,96288.34
2022-10-13T14:03:00.691Z,96286.06
2022-10-13T14:05:27.517Z,96288.53
2022-10-13T14:07:56.059Z,96287.53
2022-10-13T14:10:22.895Z,96274.53
2022-10-13T14:12:49.998Z,96286.47
2022-10-13T14:15:16.860Z,96275.50
2022-10-13T14:17:43.643Z,96278.91
2022-10-13T14:20:10.902Z,96278.50
2022-10-13T14:22:38.801Z,96263.06
2022-10-13T14:25:07.316Z,96260.25
2022-10-13T14:27:35.305Z,96245.63
2022-10-13T14:30:03.548Z,96241.63
2022-10-13T14:32:30.359Z,96236.81
2022-10-13T14:34:57.122Z,96240.44
2022-10-13T14:37:26.718Z,96244.06
2022-10-13T14:39:55.840Z,96229.03
2022-10-13T14:42:22.693Z,96232.03
2022-10-13T14:44:50.075Z,96237.50
2022-10-13T14:47:16.869Z,96238.28
2022-10-13T14:49:43.694Z,96240.13
2022-10-13T14:52:10.602Z,96242.56
2022-10-13T14:54:40.086Z,96242.56
2022-10-13T14:57:15.965Z,96241.69
2022-10-13T14:59:43.736Z,96237.19
2022-10-13T15:02:14.672Z,96234.91
2022-10-13T15:04:51.252Z,96233.28
2022-10-13T15:07:18.963Z,96231.47
2022-10-13T15:09:53.280Z,96235.53
2022-10-13T15:12:28.218Z,96242.81
2022-10-13T15:14:55.111Z,96245.78
2022-10-13T15:17:21.996Z,96245.78
2022-10-13T15:19:48.737Z,96244.91
2022-10-13T15:22:15.694Z,96238.41
2022-10-13T15:24:43.517Z,96242.03
2022-10-13T15:27:10.286Z,96242.47
2022-10-13T15:29:37.145Z,96244.19
2022-10-13T15:32:09.914Z,96246.19
2022-10-13T15:34:39.640Z,96241.47
2022-10-13T15:37:07.166Z,96238.84
2022-10-13T15:39:33.980Z,96237.41
2022-10-13T15:42:00.816Z,96233.50
2022-10-13T15:44:27.926Z,96234.50
2022-10-13T15:47:07.962Z,96234.50
2022-10-13T15:49:44.050Z,96229.16
2022-10-13T15:52:10.930Z,96234.97
2022-10-13T15:54:37.725Z,96227.28
2022-10-13T15:57:04.525Z,96223.53
2022-10-13T15:59:31.474Z,96222.75
2022-10-13T16:01:58.257Z,96219.66
2022-10-13T16:04:25.197Z,96225.09
2022-10-13T16:06:52.200Z,96230.28
2022-10-13T16:09:19.894Z,96228.00
2022-10-13T16:11:48.281Z,96234.63
2022-10-13T16:14:18.537Z,96225.31
2022-10-13T16:16:46.285Z,96217.16
2022-10-13T16:19:14.911Z,96220.16
2022-10-13T16:21:43.202Z,96219.06
2022-10-13T16:24:10.542Z,96221.44
2022-10-13T16:26:38.689Z,96230.00
2022-10-13T16:29:07.766Z,96233.38
2022-10-13T16:31:35.211Z,96232.47
2022-10-13T16:34:03.913Z,96232.19
2022-10-13T16:36:31.575Z,96236.81
2022-10-13T16:39:00.421Z,96241.97
2022-10-13T16:41:28.761Z,96241.53
2022-10-13T16:43:55.745Z,96246.78
2022-10-13T16:46:24.202Z,96244.78
2022-10-13T16:48:52.652Z,96243.16
2022-10-13T16:51:25.301Z,96248.41
2022-10-13T16:53:53.136Z,96251.38
2022-10-13T16:56:22.392Z,96246.31
2022-10-13T16:59:01.090Z,96254.66
2022-10-13T17:01:29.334Z,96258.72
2022-10-13T17:03:56.962Z,96248.03
2022-10-13T17:06:27.901Z,96267.25
2022-10-13T17:08:56.225Z,96266.25
2022-10-13T17:11:29.226Z,96263.09
2022-10-13T17:13:57.826Z,96258.47
2022-10-13T17:16:25.221Z,96266.00
2022-10-13T17:18:51.983Z,96271.59
2022-10-13T17:21:19.178Z,96269.34
2022-10-13T17:23:48.549Z,96276.22
2022-10-13T17:26:17.025Z,96275.06
2022-10-13T17:28:44.551Z,96275.69
2022-10-13T17:31:12.771Z,96271.25
2022-10-13T17:33:44.997Z,96265.00
2022-10-13T17:36:23.354Z,96265.00
2022-10-13T17:38:51.227Z,96259.94
2022-10-13T17:41:19.298Z,96264.19
2022-10-13T17:43:51.716Z,96261.09
2022-10-13T17:46:43.100Z,96253.03
2022-10-13T17:49:11.724Z,96254.22
2022-10-13T17:51:39.919Z,96244.06
2022-10-13T17:54:10.276Z,96248.50
2022-10-13T17:56:41.423Z,96245.69
2022-10-13T17:59:09.919Z,96249.31
2022-10-13T18:01:37.333Z,96252.94
2022-10-13T18:04:08.521Z,96253.28
2022-10-13T18:06:44.040Z,96242.78
2022-10-13T18:09:20.268Z,96247.59
2022-10-13T18:11:50.786Z,96244.78
2022-10-13T18:14:24.705Z,96243.63
2022-10-13T18:16:52.432Z,96245.41
2022-10-13T18:19:20.675Z,96229.03
2022-10-13T18:21:47.677Z,96235.09
2022-10-13T18:24:14.774Z,96232.19
2022-10-13T18:26:41.556Z,96232.53
2022-10-13T18:29:09.232Z,96233.72
2022-10-13T18:31:39.755Z,96221.75
2022-10-13T18:34:08.711Z,96217.53
2022-10-13T18:36:41.892Z,96203.28
2022-10-13T18:39:14.654Z,96210.88
2022-10-13T18:41:45.448Z,96207.97
2022-10-13T18:44:12.251Z,96213.03
2022-10-13T18:46:39.801Z,96216.84
2022-10-13T18:49:09.083Z,96215.22
2022-10-13T18:51:39.528Z,96221.44
2022-10-13T18:54:06.656Z,96215.56
2022-10-13T18:56:34.645Z,96212.31
2022-10-13T18:59:02.202Z,96215.06
2022-10-13T19:01:31.712Z,96209.75
2022-10-13T19:03:58.647Z,96206.81
2022-10-13T19:06:28.009Z,96209.16
2022-10-13T19:09:02.334Z,96204.59
2022-10-13T19:11:30.196Z,96206.97
2022-10-13T19:13:58.224Z,96198.09
2022-10-13T19:16:26.392Z,96204.97
2022-10-13T19:18:53.418Z,96204.59
2022-10-13T19:21:21.520Z,96207.06
2022-10-13T19:23:49.289Z,96214.56
2022-10-13T19:26:25.110Z,96217.03
2022-10-13T19:28:57.449Z,96219.66
2022-10-13T19:31:27.110Z,96224.91
2022-10-13T19:33:55.579Z,96217.84
2022-10-13T19:36:30.389Z,96213.25
2022-10-13T19:39:01.289Z,96216.84
2022-10-13T19:41:29.693Z,96221.09
2022-10-13T19:43:56.569Z,96212.78
2022-10-13T19:46:24.374Z,96215.75
2022-10-13T19:48:51.572Z,96216.41
2022-10-13T19:51:18.444Z,96219.81
2022-10-13T19:53:45.580Z,96224.06
2022-10-13T19:56:25.682Z,96221.31
2022-10-13T19:58:53.424Z,96224.53
2022-10-13T20:01:22.545Z,96220.94
2022-10-13T20:03:49.989Z,96222.09
2022-10-13T20:06:17.455Z,96224.91
2022-10-13T20:08:45.554Z,96230.16
2022-10-13T20:11:20.691Z,96227.00
2022-10-13T20:13:50.071Z,96218.16
2022-10-13T20:16:19.580Z,96219.75
2022-10-13T20:18:54.863Z,96222.56
2022-10-13T20:21:22.233Z,96219.75
2022-10-13T20:23:49.641Z,96218.59
2022-10-13T20:26:17.136Z,96212.53
2022-10-13T20:28:46.471Z,96218.94
2022-10-13T20:31:14.821Z,96216.06
2022-10-13T20:33:42.394Z,96211.50
2022-10-13T20:36:13.705Z,96203.47
2022-10-13T20:38:41.391Z,96206.09
2022-10-13T20:41:15.589Z,96204.44
2022-10-13T20:43:42.395Z,96199.81
2022-10-13T20:46:10.276Z,96200.19
2022-10-13T20:49:05.219Z,96200.00
2022-10-13T20:51:26.181Z,96198.38
2022-10-13T20:53:53.155Z,96194.94
2022-10-13T20:56:23.133Z,96190.22
2022-10-13T20:58:50.258Z,96201.06
2022-10-13T21:01:19.013Z,96200.41
2022-10-13T21:03:46.582Z,96188.66
2022-10-13T21:06:14.784Z,96188.19
2022-10-13T21:08:45.781Z,96194.13
2022-10-13T21:11:13.446Z,96190.56
2022-10-13T21:13:41.323Z,96187.16
2022-10-13T21:16:14.292Z,96191.22
2022-10-13T21:18:44.230Z,96184.16
2022-10-13T21:21:12.101Z,96178.91
2022-10-13T21:23:40.319Z,96167.44
2022-10-13T21:26:08.869Z,96164.19
2022-10-13T21:28:39.471Z,96171.75
2022-10-13T21:31:09.212Z,96170.13
2022-10-13T21:33:38.060Z,96175.75
2022-10-13T21:36:10.218Z,96175.25
2022-10-13T21:38:37.026Z,96173.47
2022-10-13T21:41:04.792Z,96167.56
2022-10-13T21:43:31.762Z,96171.63
2022-10-13T21:46:11.538Z,96168.84
2022-10-13T21:48:43.101Z,96168.03
2022-10-13T21:51:24.535Z,96169.66
2022-10-13T21:53:56.431Z,96169.53
2022-10-13T21:56:24.247Z,96174.44
2022-10-13T21:58:51.113Z,96183.13
2022-10-13T22:01:19.270Z,96178.69
2022-10-13T22:03:49.807Z,96177.53
2022-10-13T22:06:19.926Z,96177.06
2022-10-13T22:08:48.976Z,96185.13
2022-10-13T22:11:21.865Z,96183.13
2022-10-13T22:13:48.762Z,96189.84
2022-10-13T22:16:19.161Z,96184.22
2022-10-13T22:18:46.929Z,96189.47
2022-10-13T22:21:17.130Z,96181.59
2022-10-13T22:23:45.021Z,96191.09
2022-10-13T22:26:13.801Z,96185.06
2022-10-13T22:28:41.069Z,96191.28
2022-10-13T22:31:10.109Z,96185.22
2022-10-13T22:33:37.933Z,96188.34
2022-10-13T22:36:14.569Z,96183.94
2022-10-13T22:38:41.427Z,96182.13
2022-10-13T22:41:08.772Z,96185.59
2022-10-13T22:43:36.750Z,96185.91
2022-10-13T22:46:13.644Z,96185.72
2022-10-13T22:48:41.739Z,96184.13
2022-10-13T22:51:16.135Z,96188.88
2022-10-13T22:53:43.378Z,96177.78
2022-10-13T22:56:13.276Z,96180.41
2022-10-13T22:58:40.470Z,96179.94
2022-10-13T23:01:09.409Z,96174.19
2022-10-13T23:03:36.715Z,96179.97
2022-10-13T23:06:04.710Z,96172.63
2022-10-13T23:08:31.469Z,96169.53
2022-10-13T23:10:58.588Z,96171.88
2022-10-13T23:13:25.814Z,96168.44
2022-10-13T23:15:53.852Z,96172.19
2022-10-13T23:18:25.812Z,96168.97
2022-10-13T23:20:56.705Z,96161.94
2022-10-13T23:23:26.187Z,96164.91
2022-10-13T23:25:52.932Z,96161.47
2022-10-13T23:28:19.734Z,96160.66
2022-10-13T23:30:46.457Z,96152.97
2022-10-13T23:33:13.217Z,96152.16
2022-10-13T23:35:42.141Z,96155.94
2022-10-13T23:38:10.209Z,96156.44
2022-10-13T23:40:37.723Z,96158.44
2022-10-13T23:43:06.178Z,96158.75
2022-10-13T23:45:34.060Z,96156.47
2022-10-13T23:48:00.856Z,96149.25
2022-10-13T23:50:28.417Z,96153.50
2022-10-13T23:52:56.153Z,96160.38
2022-10-13T23:55:22.907Z,96163.97
2022-10-13T23:57:49.677Z,96161.88
